createdAt,value
2023-05-14T00:00:13.205Z,91
2023-05-14T00:00:43.966Z,91
2023-05-14T00:01:16.889Z,91
2023-05-14T00:01:48.108Z,91
2023-05-14T00:02:21.358Z,91
2023-05-14T00:02:51.995Z,91
2023-05-14T00:03:25.010Z,91
2023-05-14T00:03:56.018Z,91
2023-05-14T00:04:28.684Z,91
2023-05-14T00:04:59.819Z,91
2023-05-14T00:05:32.783Z,91
2023-05-14T00:06:03.883Z,91
2023-05-14T00:06:36.661Z,91
2023-05-14T00:07:07.761Z,91
2023-05-14T00:07:40.812Z,91
2023-05-14T00:08:11.734Z,91
2023-05-14T00:08:44.528Z,91
2023-05-14T00:09:15.630Z,91
2023-05-14T00:09:48.556Z,91
2023-05-14T00:10:19.700Z,91
2023-05-14T00:10:52.440Z,92
2023-05-14T00:11:23.529Z,91
2023-05-14T00:11:56.384Z,91
2023-05-14T00:12:27.599Z,92
2023-05-14T00:13:00.429Z,92
2023-05-14T00:13:31.561Z,92
2023-05-14T00:14:04.510Z,92
2023-05-14T00:14:35.508Z,92
2023-05-14T00:15:08.488Z,92
2023-05-14T00:15:39.462Z,92
2023-05-14T00:16:12.380Z,92
2023-05-14T00:16:43.417Z,92
2023-05-14T00:17:16.139Z,92
2023-05-14T00:17:47.397Z,92
2023-05-14T00:18:20.353Z,92
2023-05-14T00:18:51.456Z,92
2023-05-14T00:19:23.967Z,92
2023-05-14T00:19:55.193Z,92
2023-05-14T00:20:28.151Z,92
2023-05-14T00:20:59.067Z,92
2023-05-14T00:21:32.039Z,92
2023-05-14T00:22:03.155Z,92
2023-05-14T00:22:36.940Z,92
2023-05-14T00:23:07.123Z,92
2023-05-14T00:23:39.883Z,92
2023-05-14T00:24:11.117Z,92
2023-05-14T00:24:43.969Z,92
2023-05-14T00:25:14.911Z,92
2023-05-14T00:25:47.847Z,92
2023-05-14T00:26:18.970Z,92
2023-05-14T00:26:51.895Z,92
2023-05-14T00:27:22.829Z,92
2023-05-14T00:27:55.649Z,92
2023-05-14T00:28:26.976Z,92
2023-05-14T00:28:59.817Z,92
2023-05-14T00:29:30.915Z,92
2023-05-14T00:30:03.760Z,92
2023-05-14T00:30:34.775Z,92
2023-05-14T00:31:07.759Z,92
2023-05-14T00:31:38.700Z,92
2023-05-14T00:32:11.566Z,92
2023-05-14T00:32:42.729Z,92
2023-05-14T00:33:15.636Z,92
2023-05-14T00:33:46.661Z,92
2023-05-14T00:34:19.797Z,92
2023-05-14T00:34:50.832Z,92
2023-05-14T00:35:23.544Z,92
2023-05-14T00:35:54.461Z,92
2023-05-14T00:36:27.491Z,92
2023-05-14T00:36:58.530Z,92
2023-05-14T00:37:31.519Z,92
2023-05-14T00:38:02.404Z,92
2023-05-14T00:38:36.914Z,92
2023-05-14T00:39:06.455Z,92
2023-05-14T00:39:39.073Z,92
2023-05-14T00:40:10.356Z,92
2023-05-14T00:40:43.264Z,92
2023-05-14T00:41:14.358Z,92
2023-05-14T00:41:47.104Z,92
2023-05-14T00:42:18.220Z,92
2023-05-14T00:42:51.109Z,92
2023-05-14T00:43:22.324Z,92
2023-05-14T00:43:55.004Z,92
2023-05-14T00:44:26.126Z,92
2023-05-14T00:44:59.490Z,93
2023-05-14T00:45:30.399Z,92
2023-05-14T00:46:02.944Z,92
2023-05-14T00:46:34.294Z,92
2023-05-14T00:47:07.048Z,93
2023-05-14T00:47:38.132Z,92
2023-05-14T00:48:10.930Z,93
2023-05-14T00:48:41.963Z,93
2023-05-14T00:49:14.893Z,93
2023-05-14T00:49:46.019Z,93
2023-05-14T00:50:18.782Z,93
2023-05-14T00:50:49.861Z,93
2023-05-14T00:51:22.811Z,93
2023-05-14T00:51:53.960Z,93
2023-05-14T00:52:26.643Z,93
2023-05-14T00:52:57.785Z,93
2023-05-14T00:53:30.933Z,93
2023-05-14T00:54:01.890Z,93
2023-05-14T00:54:34.567Z,93
2023-05-14T00:55:05.826Z,93
2023-05-14T00:55:38.643Z,93
2023-05-14T00:56:09.773Z,93
2023-05-14T00:56:42.489Z,93
2023-05-14T00:57:13.656Z,93
2023-05-14T00:57:46.552Z,93
2023-05-14T00:58:17.688Z,93
2023-05-14T00:58:50.545Z,93
2023-05-14T00:59:21.737Z,93
2023-05-14T00:59:54.456Z,93
2023-05-14T01:00:25.982Z,93
2023-05-14T01:00:58.370Z,93
2023-05-14T01:01:29.495Z,93
2023-05-14T01:02:02.312Z,93
2023-05-14T01:02:33.771Z,93
2023-05-14T01:03:06.381Z,93
2023-05-14T01:03:37.552Z,93
2023-05-14T01:04:10.449Z,93
2023-05-14T01:04:41.442Z,93
2023-05-14T01:05:14.157Z,93
2023-05-14T01:05:45.603Z,93
2023-05-14T01:06:18.443Z,93
2023-05-14T01:06:49.123Z,93
2023-05-14T01:07:21.970Z,93
2023-05-14T01:07:53.189Z,93
2023-05-14T01:08:26.216Z,93
2023-05-14T01:08:57.056Z,93
2023-05-14T01:09:30.041Z,93
2023-05-14T01:10:01.449Z,93
2023-05-14T01:10:34.134Z,93
2023-05-14T01:11:04.954Z,93
2023-05-14T01:11:37.862Z,93
2023-05-14T01:12:09.341Z,93
2023-05-14T01:12:41.935Z,93
2023-05-14T01:13:12.899Z,93
2023-05-14T01:13:46.511Z,93
2023-05-14T01:14:16.988Z,93
2023-05-14T01:14:49.864Z,93
2023-05-14T01:15:21.009Z,93
2023-05-14T01:15:53.809Z,93
2023-05-14T01:16:24.958Z,93
2023-05-14T01:16:57.938Z,93
2023-05-14T01:17:28.793Z,93
2023-05-14T01:18:01.712Z,93
2023-05-14T01:18:33.567Z,93
2023-05-14T01:19:05.870Z,93
2023-05-14T01:19:36.630Z,93
2023-05-14T01:20:09.560Z,93
2023-05-14T01:20:40.884Z,93
2023-05-14T01:21:13.592Z,93
2023-05-14T01:21:44.565Z,93
2023-05-14T01:22:17.492Z,93
2023-05-14T01:22:48.602Z,93
2023-05-14T01:23:22.146Z,93
2023-05-14T01:23:52.459Z,93
2023-05-14T01:24:25.276Z,93
2023-05-14T01:24:56.504Z,93
2023-05-14T01:25:29.314Z,93
2023-05-14T01:26:00.464Z,93
2023-05-14T01:26:33.284Z,93
2023-05-14T01:27:04.418Z,93
2023-05-14T01:27:37.555Z,93
2023-05-14T01:28:08.284Z,93
2023-05-14T01:28:41.470Z,93
2023-05-14T01:29:12.355Z,93
2023-05-14T01:29:45.107Z,93
2023-05-14T01:30:16.462Z,93
2023-05-14T01:30:49.034Z,93
2023-05-14T01:31:20.331Z,93
2023-05-14T01:31:53.011Z,93
2023-05-14T01:32:24.175Z,93
2023-05-14T01:32:57.112Z,93
2023-05-14T01:33:28.461Z,93
2023-05-14T01:34:01.011Z,93
2023-05-14T01:34:32.052Z,93
2023-05-14T01:35:05.009Z,93
2023-05-14T01:35:36.098Z,93
2023-05-14T01:36:08.822Z,93
2023-05-14T01:36:39.978Z,93
2023-05-14T01:37:12.797Z,93
2023-05-14T01:37:44.006Z,93
2023-05-14T01:38:16.768Z,93
2023-05-14T01:38:47.928Z,94
2023-05-14T01:39:20.972Z,94
2023-05-14T01:39:51.913Z,94
2023-05-14T01:40:24.935Z,94
2023-05-14T01:40:55.784Z,94
2023-05-14T01:41:28.767Z,94
2023-05-14T01:41:59.885Z,94
2023-05-14T01:42:32.434Z,94
2023-05-14T01:43:03.905Z,94
2023-05-14T01:43:36.764Z,94
2023-05-14T01:44:07.819Z,94
2023-05-14T01:44:40.491Z,94
2023-05-14T01:45:11.706Z,94
2023-05-14T01:45:44.481Z,94
2023-05-14T01:46:15.748Z,94
2023-05-14T01:46:48.423Z,94
2023-05-14T01:47:19.539Z,94
2023-05-14T01:47:52.368Z,94
2023-05-14T01:48:23.659Z,94
2023-05-14T01:48:56.308Z,94
2023-05-14T01:49:27.466Z,94
2023-05-14T01:50:00.619Z,94
2023-05-14T01:50:31.426Z,94
2023-05-14T01:51:04.148Z,94
2023-05-14T01:51:35.482Z,94
2023-05-14T01:52:08.230Z,94
2023-05-14T01:52:39.254Z,94
2023-05-14T01:53:12.273Z,94
2023-05-14T01:53:43.298Z,94
2023-05-14T01:54:16.164Z,94
2023-05-14T01:54:47.194Z,94
2023-05-14T01:55:20.100Z,94
2023-05-14T01:55:51.373Z,94
2023-05-14T01:56:24.160Z,94
2023-05-14T01:56:55.080Z,94
2023-05-14T01:57:28.064Z,94
2023-05-14T01:57:59.257Z,94
2023-05-14T01:58:32.037Z,94
2023-05-14T01:59:02.999Z,94
2023-05-14T01:59:35.815Z,94
2023-05-14T02:00:07.727Z,94
2023-05-14T02:00:39.877Z,94
2023-05-14T02:01:11.185Z,94
2023-05-14T02:01:44.250Z,94
2023-05-14T02:02:14.983Z,94
2023-05-14T02:02:47.965Z,94
2023-05-14T02:03:18.889Z,94
2023-05-14T02:03:51.835Z,95
2023-05-14T02:04:22.961Z,94
2023-05-14T02:04:55.621Z,95
2023-05-14T02:05:26.780Z,95
2023-05-14T02:05:59.722Z,95
2023-05-14T02:06:31.048Z,95
2023-05-14T02:07:03.697Z,95
2023-05-14T02:07:34.657Z,95
2023-05-14T02:08:07.619Z,95
2023-05-14T02:08:38.762Z,95
2023-05-14T02:09:11.483Z,95
2023-05-14T02:09:42.560Z,95
2023-05-14T02:10:15.590Z,95
2023-05-14T02:10:46.718Z,95
2023-05-14T02:11:19.242Z,95
2023-05-14T02:11:50.611Z,95
2023-05-14T02:12:23.429Z,95
2023-05-14T02:12:54.602Z,95
2023-05-14T02:13:27.465Z,95
2023-05-14T02:13:58.411Z,95
2023-05-14T02:14:31.489Z,95
2023-05-14T02:15:02.558Z,95
2023-05-14T02:15:35.243Z,95
2023-05-14T02:16:06.330Z,95
2023-05-14T02:16:39.253Z,95
2023-05-14T02:17:10.485Z,95
2023-05-14T02:17:43.121Z,94
2023-05-14T02:18:14.262Z,94
2023-05-14T02:18:47.249Z,94
2023-05-14T02:19:18.256Z,94
2023-05-14T02:19:51.161Z,94
2023-05-14T02:20:22.339Z,94
2023-05-14T02:20:55.048Z,94
2023-05-14T02:21:26.236Z,95
2023-05-14T02:21:58.929Z,94
2023-05-14T02:22:30.071Z,94
2023-05-14T02:23:03.116Z,94
2023-05-14T02:23:41.639Z,94
2023-05-14T02:24:06.787Z,94
2023-05-14T02:24:38.050Z,94
2023-05-14T02:25:10.890Z,94
2023-05-14T02:25:41.814Z,94
2023-05-14T02:26:14.962Z,94
2023-05-14T02:26:45.879Z,94
2023-05-14T02:27:18.794Z,94
2023-05-14T02:27:49.943Z,94
2023-05-14T02:28:22.748Z,94
2023-05-14T02:28:53.801Z,94
2023-05-14T02:29:26.650Z,94
2023-05-14T02:29:57.694Z,94
2023-05-14T02:30:30.976Z,94
2023-05-14T02:31:01.715Z,94
2023-05-14T02:31:34.765Z,94
2023-05-14T02:32:05.597Z,94
2023-05-14T02:32:38.708Z,94
2023-05-14T02:33:09.735Z,94
2023-05-14T02:33:42.702Z,95
2023-05-14T02:34:13.444Z,95
2023-05-14T02:34:46.447Z,95
2023-05-14T02:35:17.587Z,95
2023-05-14T02:35:50.517Z,95
2023-05-14T02:36:21.425Z,95
2023-05-14T02:36:54.307Z,95
2023-05-14T02:37:25.513Z,95
2023-05-14T02:37:58.390Z,95
2023-05-14T02:38:29.319Z,95
2023-05-14T02:39:02.217Z,95
2023-05-14T02:39:33.964Z,95
2023-05-14T02:40:06.478Z,95
2023-05-14T02:40:37.213Z,95
2023-05-14T02:41:10.219Z,95
2023-05-14T02:41:41.319Z,95
2023-05-14T02:42:14.095Z,95
2023-05-14T02:42:45.131Z,95
2023-05-14T02:43:18.083Z,95
2023-05-14T02:43:49.145Z,95
2023-05-14T02:44:22.090Z,95
2023-05-14T02:44:53.044Z,95
2023-05-14T02:45:26.086Z,95
2023-05-14T02:45:57.135Z,95
2023-05-14T02:46:30.111Z,95
2023-05-14T02:47:01.135Z,95
2023-05-14T02:47:36.883Z,95
2023-05-14T02:48:05.084Z,95
2023-05-14T02:48:38.134Z,95
2023-05-14T02:49:08.859Z,95
2023-05-14T02:49:41.761Z,95
2023-05-14T02:50:12.971Z,95
2023-05-14T02:50:45.773Z,95
2023-05-14T02:51:16.875Z,95
2023-05-14T02:51:49.730Z,95
2023-05-14T02:52:21.114Z,95
2023-05-14T02:52:53.815Z,95
2023-05-14T02:53:24.745Z,95
2023-05-14T02:53:57.630Z,95
2023-05-14T02:54:28.730Z,95
2023-05-14T02:55:01.864Z,95
2023-05-14T02:55:32.610Z,95
2023-05-14T02:56:05.536Z,95
2023-05-14T02:56:36.661Z,95
2023-05-14T02:57:09.627Z,95
2023-05-14T02:57:40.604Z,95
2023-05-14T02:58:13.469Z,95
2023-05-14T02:58:44.556Z,95
2023-05-14T02:59:17.511Z,95
2023-05-14T02:59:48.422Z,95
2023-05-14T03:00:21.854Z,95
2023-05-14T03:00:52.591Z,95
2023-05-14T03:01:25.539Z,95
2023-05-14T03:01:56.393Z,95
2023-05-14T03:02:29.318Z,95
2023-05-14T03:03:00.516Z,95
2023-05-14T03:03:33.726Z,95
2023-05-14T03:04:04.420Z,95
2023-05-14T03:04:37.083Z,95
2023-05-14T03:05:08.309Z,95
2023-05-14T03:05:41.155Z,95
2023-05-14T03:06:12.174Z,95
2023-05-14T03:06:45.127Z,95
2023-05-14T03:07:16.240Z,95
2023-05-14T03:07:48.969Z,95
2023-05-14T03:08:20.114Z,95
2023-05-14T03:08:53.127Z,95
2023-05-14T03:09:24.193Z,95
2023-05-14T03:09:57.033Z,95
2023-05-14T03:10:28.073Z,95
2023-05-14T03:11:01.189Z,95
2023-05-14T03:11:32.053Z,95
2023-05-14T03:12:04.786Z,95
2023-05-14T03:12:35.915Z,95
2023-05-14T03:13:08.953Z,95
2023-05-14T03:13:39.999Z,95
2023-05-14T03:14:12.709Z,95
2023-05-14T03:14:43.838Z,95
2023-05-14T03:15:17.118Z,95
2023-05-14T03:15:47.920Z,95
2023-05-14T03:16:20.772Z,95
2023-05-14T03:16:51.858Z,95
2023-05-14T03:17:24.766Z,95
2023-05-14T03:17:55.888Z,95
2023-05-14T03:18:28.577Z,95
2023-05-14T03:18:59.737Z,95
2023-05-14T03:19:32.602Z,95
2023-05-14T03:20:03.797Z,95
2023-05-14T03:20:36.467Z,95
2023-05-14T03:21:07.655Z,95
2023-05-14T03:21:41.007Z,95
2023-05-14T03:22:11.675Z,95
2023-05-14T03:22:44.375Z,95
2023-05-14T03:23:15.528Z,95
2023-05-14T03:23:48.518Z,95
2023-05-14T03:24:19.586Z,95
2023-05-14T03:24:52.290Z,95
2023-05-14T03:25:23.515Z,95
2023-05-14T03:25:56.396Z,95
2023-05-14T03:26:27.505Z,95
2023-05-14T03:27:00.121Z,95
2023-05-14T03:27:31.400Z,95
2023-05-14T03:28:04.382Z,95
2023-05-14T03:28:35.403Z,95
2023-05-14T03:29:08.137Z,95
2023-05-14T03:29:39.258Z,95
2023-05-14T03:30:12.297Z,95
2023-05-14T03:30:43.399Z,95
2023-05-14T03:31:16.048Z,95
2023-05-14T03:31:47.184Z,95
2023-05-14T03:32:20.223Z,95
2023-05-14T03:32:51.515Z,95
2023-05-14T03:33:24.133Z,95
2023-05-14T03:33:55.240Z,95
2023-05-14T03:34:28.032Z,95
2023-05-14T03:34:58.969Z,95
2023-05-14T03:35:31.776Z,95
2023-05-14T03:36:02.998Z,95
2023-05-14T03:36:36.034Z,95
2023-05-14T03:37:06.846Z,95
2023-05-14T03:37:39.813Z,95
2023-05-14T03:38:10.989Z,95
2023-05-14T03:38:43.934Z,95
2023-05-14T03:39:14.772Z,95
2023-05-14T03:39:47.727Z,95
2023-05-14T03:40:18.852Z,95
2023-05-14T03:40:51.853Z,95
2023-05-14T03:41:22.727Z,95
2023-05-14T03:41:55.630Z,95
2023-05-14T03:42:26.725Z,95
2023-05-14T03:42:59.694Z,95
2023-05-14T03:43:30.733Z,95
2023-05-14T03:44:03.616Z,95
2023-05-14T03:44:34.650Z,95
2023-05-14T03:45:07.848Z,95
2023-05-14T03:45:38.515Z,95
2023-05-14T03:46:11.398Z,95
2023-05-14T03:46:42.584Z,95
2023-05-14T03:47:15.491Z,95
2023-05-14T03:47:46.492Z,95
2023-05-14T03:48:19.586Z,95
2023-05-14T03:48:50.721Z,95
2023-05-14T03:49:23.360Z,95
2023-05-14T03:49:54.372Z,95
2023-05-14T03:50:27.388Z,95
2023-05-14T03:50:58.399Z,95
2023-05-14T03:51:31.282Z,95
2023-05-14T03:52:02.251Z,95
2023-05-14T03:52:35.174Z,95
2023-05-14T03:53:06.308Z,95
2023-05-14T03:53:39.231Z,95
2023-05-14T03:54:10.201Z,95
2023-05-14T03:54:43.003Z,95
2023-05-14T03:55:14.240Z,95
2023-05-14T03:55:47.081Z,95
2023-05-14T03:56:18.098Z,95
2023-05-14T03:56:51.145Z,95
2023-05-14T03:57:22.144Z,95
2023-05-14T03:57:55.094Z,95
2023-05-14T03:58:25.996Z,95
2023-05-14T03:58:58.998Z,95
2023-05-14T03:59:30.068Z,95
2023-05-14T04:00:03.302Z,95
2023-05-14T04:00:33.906Z,95
2023-05-14T04:01:06.819Z,95
2023-05-14T04:01:37.961Z,95
2023-05-14T04:02:10.960Z,95
2023-05-14T04:02:42.084Z,95
2023-05-14T04:03:14.975Z,95
2023-05-14T04:03:46.201Z,95
2023-05-14T04:04:18.713Z,95
2023-05-14T04:04:49.900Z,95
2023-05-14T04:05:22.679Z,95
2023-05-14T04:05:53.845Z,95
2023-05-14T04:06:26.648Z,95
2023-05-14T04:06:57.779Z,95
2023-05-14T04:07:30.692Z,95
2023-05-14T04:08:01.685Z,95
2023-05-14T04:08:34.615Z,95
2023-05-14T04:09:05.584Z,95
2023-05-14T04:09:38.395Z,95
2023-05-14T04:10:09.626Z,95
2023-05-14T04:10:42.336Z,95
2023-05-14T04:11:13.485Z,95
2023-05-14T04:11:46.465Z,95
2023-05-14T04:12:17.553Z,95
2023-05-14T04:12:50.314Z,95
2023-05-14T04:13:21.477Z,95
2023-05-14T04:13:54.346Z,95
2023-05-14T04:14:25.489Z,95
2023-05-14T04:14:58.093Z,95
2023-05-14T04:15:29.543Z,95
2023-05-14T04:16:02.282Z,95
2023-05-14T04:16:33.921Z,95
2023-05-14T04:17:06.097Z,95
2023-05-14T04:17:37.388Z,95
2023-05-14T04:18:10.262Z,95
2023-05-14T04:18:41.525Z,95
2023-05-14T04:19:13.956Z,95
2023-05-14T04:19:45.200Z,95
2023-05-14T04:20:18.072Z,95
2023-05-14T04:20:49.007Z,95
2023-05-14T04:21:21.983Z,95
2023-05-14T04:21:53.114Z,95
2023-05-14T04:22:25.987Z,95
2023-05-14T04:22:57.133Z,95
2023-05-14T04:23:29.926Z,95
2023-05-14T04:24:01.270Z,95
2023-05-14T04:24:33.916Z,95
2023-05-14T04:25:04.853Z,95
2023-05-14T04:25:37.773Z,95
2023-05-14T04:26:08.891Z,95
2023-05-14T04:26:41.807Z,95
2023-05-14T04:27:12.787Z,95
2023-05-14T04:27:45.685Z,95
2023-05-14T04:28:16.943Z,95
2023-05-14T04:28:49.766Z,95
2023-05-14T04:29:20.861Z,95
2023-05-14T04:29:53.628Z,95
2023-05-14T04:30:25.018Z,95
2023-05-14T04:30:58.153Z,95
2023-05-14T04:31:28.594Z,95
2023-05-14T04:32:01.776Z,95
2023-05-14T04:32:32.704Z,95
2023-05-14T04:33:05.642Z,95
2023-05-14T04:33:36.494Z,95
2023-05-14T04:34:09.485Z,95
2023-05-14T04:34:40.650Z,94
2023-05-14T04:35:13.582Z,94
2023-05-14T04:35:44.414Z,94
2023-05-14T04:36:17.333Z,94
2023-05-14T04:36:48.491Z,94
2023-05-14T04:37:21.592Z,94
2023-05-14T04:37:52.350Z,94
2023-05-14T04:38:25.362Z,94
2023-05-14T04:38:56.386Z,94
2023-05-14T04:39:29.333Z,94
2023-05-14T04:40:00.409Z,94
2023-05-14T04:40:33.170Z,94
2023-05-14T04:41:04.293Z,94
2023-05-14T04:41:37.110Z,94
2023-05-14T04:42:08.143Z,94
2023-05-14T04:42:41.169Z,94
2023-05-14T04:43:12.191Z,94
2023-05-14T04:43:45.129Z,94
2023-05-14T04:44:16.164Z,94
2023-05-14T04:44:48.979Z,94
2023-05-14T04:45:20.458Z,94
2023-05-14T04:45:53.106Z,94
2023-05-14T04:46:23.986Z,94
2023-05-14T04:46:56.832Z,94
2023-05-14T04:47:28.141Z,94
2023-05-14T04:48:01.140Z,94
2023-05-14T04:48:31.864Z,94
2023-05-14T04:49:04.832Z,94
2023-05-14T04:49:35.982Z,94
2023-05-14T04:50:09.209Z,94
2023-05-14T04:50:39.822Z,94
2023-05-14T04:51:12.631Z,94
2023-05-14T04:51:43.856Z,94
2023-05-14T04:52:16.905Z,94
2023-05-14T04:52:47.813Z,94
2023-05-14T04:53:20.883Z,94
2023-05-14T04:53:51.998Z,94
2023-05-14T04:54:24.745Z,94
2023-05-14T04:54:55.634Z,94
2023-05-14T04:55:28.575Z,94
2023-05-14T04:55:59.667Z,94
2023-05-14T04:56:32.641Z,94
2023-05-14T04:57:03.559Z,94
2023-05-14T04:57:36.624Z,94
2023-05-14T04:58:07.645Z,94
2023-05-14T04:58:40.846Z,94
2023-05-14T04:59:11.474Z,94
2023-05-14T04:59:44.456Z,94
2023-05-14T05:00:15.711Z,94
2023-05-14T05:00:48.281Z,94
2023-05-14T05:01:19.408Z,93
2023-05-14T05:01:52.302Z,93
2023-05-14T05:02:23.559Z,93
2023-05-14T05:02:56.266Z,93
2023-05-14T05:03:27.471Z,94
2023-05-14T05:04:00.485Z,94
2023-05-14T05:04:31.391Z,93
2023-05-14T05:05:04.155Z,93
2023-05-14T05:05:35.197Z,93
2023-05-14T05:06:08.183Z,93
2023-05-14T05:06:39.234Z,93
2023-05-14T05:07:11.985Z,93
2023-05-14T05:07:43.092Z,93
2023-05-14T05:08:16.153Z,93
2023-05-14T05:08:47.220Z,93
2023-05-14T05:09:19.872Z,93
2023-05-14T05:09:51.218Z,93
2023-05-14T05:10:24.255Z,93
2023-05-14T05:10:55.105Z,93
2023-05-14T05:11:27.884Z,93
2023-05-14T05:11:58.949Z,93
2023-05-14T05:12:32.173Z,93
2023-05-14T05:13:03.016Z,93
2023-05-14T05:13:35.871Z,93
2023-05-14T05:14:06.886Z,93
2023-05-14T05:14:39.843Z,93
2023-05-14T05:15:11.124Z,93
2023-05-14T05:15:43.586Z,93
2023-05-14T05:16:14.997Z,92
2023-05-14T05:16:47.704Z,92
2023-05-14T05:17:18.699Z,93
2023-05-14T05:17:51.664Z,92
2023-05-14T05:18:22.728Z,92
2023-05-14T05:18:55.713Z,93
2023-05-14T05:19:35.731Z,92
2023-05-14T05:19:59.523Z,92
2023-05-14T05:20:30.788Z,92
2023-05-14T05:21:03.548Z,92
2023-05-14T05:21:34.471Z,92
2023-05-14T05:22:07.391Z,93
2023-05-14T05:22:38.532Z,92
2023-05-14T05:23:11.504Z,92
2023-05-14T05:23:42.407Z,92
2023-05-14T05:24:15.323Z,92
2023-05-14T05:24:47.058Z,92
2023-05-14T05:25:19.426Z,92
2023-05-14T05:25:50.426Z,92
2023-05-14T05:26:23.138Z,92
2023-05-14T05:26:54.848Z,92
2023-05-14T05:27:27.395Z,92
2023-05-14T05:27:58.196Z,92
2023-05-14T05:28:31.316Z,92
2023-05-14T05:29:02.265Z,92
2023-05-14T05:29:36.111Z,92
2023-05-14T05:30:06.432Z,92
2023-05-14T05:30:39.043Z,92
2023-05-14T05:31:10.228Z,92
2023-05-14T05:31:43.186Z,92
2023-05-14T05:32:14.051Z,92
2023-05-14T05:32:47.101Z,92
2023-05-14T05:33:18.126Z,92
2023-05-14T05:33:51.246Z,92
2023-05-14T05:34:21.964Z,92
2023-05-14T05:34:54.949Z,92
2023-05-14T05:35:26.036Z,92
2023-05-14T05:35:58.985Z,92
2023-05-14T05:36:29.914Z,91
2023-05-14T05:37:02.914Z,91
2023-05-14T05:37:33.975Z,91
2023-05-14T05:38:06.848Z,91
2023-05-14T05:38:37.799Z,91
2023-05-14T05:39:10.982Z,91
2023-05-14T05:39:41.823Z,91
2023-05-14T05:40:14.810Z,91
2023-05-14T05:40:45.722Z,91
2023-05-14T05:41:18.638Z,91
2023-05-14T05:41:49.816Z,91
2023-05-14T05:42:22.736Z,91
2023-05-14T05:42:53.595Z,91
2023-05-14T05:43:26.520Z,91
2023-05-14T05:43:57.680Z,90
2023-05-14T05:44:30.532Z,90
2023-05-14T05:45:01.830Z,90
2023-05-14T05:45:34.452Z,90
2023-05-14T05:46:05.614Z,90
2023-05-14T05:46:38.526Z,90
2023-05-14T05:47:09.454Z,90
2023-05-14T05:47:42.433Z,90
2023-05-14T05:48:13.493Z,90
2023-05-14T05:48:46.597Z,89
2023-05-14T05:49:17.428Z,89
2023-05-14T05:49:50.255Z,89
2023-05-14T05:50:21.818Z,89
2023-05-14T05:50:54.217Z,90
2023-05-14T05:51:25.265Z,90
2023-05-14T05:51:58.511Z,90
2023-05-14T05:52:29.302Z,90
2023-05-14T05:53:02.366Z,89
2023-05-14T05:53:33.163Z,89
2023-05-14T05:54:06.089Z,89
2023-05-14T05:54:37.251Z,89
2023-05-14T05:55:10.024Z,89
2023-05-14T05:55:41.324Z,89
2023-05-14T05:56:14.018Z,89
2023-05-14T05:56:45.561Z,89
2023-05-14T05:57:17.939Z,89
2023-05-14T05:57:49.018Z,89
2023-05-14T05:58:21.968Z,89
2023-05-14T05:58:53.053Z,89
2023-05-14T05:59:26.692Z,89
2023-05-14T05:59:56.944Z,89
2023-05-14T06:00:30.025Z,89
2023-05-14T06:01:01.055Z,88
2023-05-14T06:01:33.594Z,88
2023-05-14T06:02:04.889Z,88
2023-05-14T06:02:37.954Z,88
2023-05-14T06:03:08.924Z,88
2023-05-14T06:03:41.603Z,88
2023-05-14T06:04:12.750Z,88
2023-05-14T06:04:45.641Z,88
2023-05-14T06:05:17.137Z,88
2023-05-14T06:05:49.744Z,88
2023-05-14T06:06:21.242Z,88
2023-05-14T06:06:53.686Z,88
2023-05-14T06:07:24.728Z,88
2023-05-14T06:07:57.332Z,88
2023-05-14T06:08:28.552Z,88
2023-05-14T06:09:01.742Z,88
2023-05-14T06:09:32.711Z,88
2023-05-14T06:10:05.411Z,88
2023-05-14T06:10:36.508Z,88
2023-05-14T06:11:09.504Z,87
2023-05-14T06:11:40.691Z,87
2023-05-14T06:12:13.272Z,87
2023-05-14T06:12:44.420Z,87
2023-05-14T06:13:17.484Z,87
2023-05-14T06:13:48.491Z,87
2023-05-14T06:14:21.395Z,87
2023-05-14T06:14:52.365Z,87
2023-05-14T06:15:25.382Z,87
2023-05-14T06:15:56.369Z,87
2023-05-14T06:16:29.118Z,87
2023-05-14T06:17:00.514Z,87
2023-05-14T06:17:33.182Z,87
2023-05-14T06:18:04.319Z,87
2023-05-14T06:18:38.212Z,87
2023-05-14T06:19:08.186Z,87
2023-05-14T06:19:41.079Z,87
2023-05-14T06:20:12.198Z,87
2023-05-14T06:20:44.934Z,87
2023-05-14T06:21:16.079Z,87
2023-05-14T06:21:48.894Z,87
2023-05-14T06:22:20.133Z,87
2023-05-14T06:22:52.836Z,87
2023-05-14T06:23:23.989Z,87
2023-05-14T06:23:57.025Z,86
2023-05-14T06:24:27.862Z,86
2023-05-14T06:25:01.006Z,86
2023-05-14T06:25:31.900Z,86
2023-05-14T06:26:04.817Z,86
2023-05-14T06:26:35.761Z,86
2023-05-14T06:27:08.715Z,86
2023-05-14T06:27:39.855Z,86
2023-05-14T06:28:12.758Z,86
2023-05-14T06:28:43.694Z,86
2023-05-14T06:29:17.456Z,85
2023-05-14T06:29:47.860Z,85
2023-05-14T06:30:21.035Z,85
2023-05-14T06:30:51.768Z,85
2023-05-14T06:31:24.512Z,85
2023-05-14T06:31:55.759Z,85
2023-05-14T06:32:28.822Z,85
2023-05-14T06:32:59.627Z,85
2023-05-14T06:33:32.436Z,85
2023-05-14T06:34:03.587Z,85
2023-05-14T06:34:37.394Z,85
2023-05-14T06:35:07.678Z,84
2023-05-14T06:35:41.267Z,85
2023-05-14T06:36:11.592Z,85
2023-05-14T06:36:44.514Z,84
2023-05-14T06:37:15.397Z,84
2023-05-14T06:37:48.301Z,84
2023-05-14T06:38:19.415Z,84
2023-05-14T06:38:52.408Z,84
2023-05-14T06:39:23.288Z,84
2023-05-14T06:39:57.755Z,84
2023-05-14T06:40:27.308Z,84
2023-05-14T06:41:00.078Z,85
2023-05-14T06:41:31.434Z,85
2023-05-14T06:42:04.115Z,85
2023-05-14T06:42:35.206Z,85
2023-05-14T06:43:08.187Z,84
2023-05-14T06:43:39.085Z,84
2023-05-14T06:44:11.990Z,84
2023-05-14T06:44:43.156Z,84
2023-05-14T06:45:15.888Z,84
2023-05-14T06:45:47.108Z,84
2023-05-14T06:46:19.822Z,85
2023-05-14T06:46:51.462Z,84
2023-05-14T06:47:23.784Z,84
2023-05-14T06:47:54.986Z,84
2023-05-14T06:48:28.116Z,84
2023-05-14T06:48:59.745Z,84
2023-05-14T06:49:31.690Z,84
2023-05-14T06:50:02.860Z,84
2023-05-14T06:50:35.741Z,84
2023-05-14T06:51:07.071Z,84
2023-05-14T06:51:39.748Z,85
2023-05-14T06:52:10.851Z,84
2023-05-14T06:52:43.635Z,84
2023-05-14T06:53:14.811Z,84
2023-05-14T06:53:47.702Z,84
2023-05-14T06:54:18.712Z,84
2023-05-14T06:54:51.763Z,84
2023-05-14T06:55:22.740Z,84
2023-05-14T06:55:55.450Z,84
2023-05-14T06:56:26.587Z,84
2023-05-14T06:56:59.395Z,84
2023-05-14T06:57:30.878Z,84
2023-05-14T06:58:03.492Z,84
2023-05-14T06:58:34.536Z,84
2023-05-14T06:59:07.437Z,84
2023-05-14T06:59:38.549Z,84
2023-05-14T07:00:11.653Z,84
2023-05-14T07:00:42.442Z,84
2023-05-14T07:01:15.377Z,84
2023-05-14T07:01:46.809Z,84
2023-05-14T07:02:19.195Z,84
2023-05-14T07:02:50.586Z,84
2023-05-14T07:03:23.295Z,84
2023-05-14T07:03:54.397Z,84
2023-05-14T07:04:27.102Z,84
2023-05-14T07:04:58.266Z,84
2023-05-14T07:05:31.320Z,84
2023-05-14T07:06:02.130Z,84
2023-05-14T07:06:35.347Z,84
2023-05-14T07:07:06.219Z,84
2023-05-14T07:07:39.000Z,84
2023-05-14T07:08:10.141Z,84
2023-05-14T07:08:43.043Z,84
2023-05-14T07:09:14.127Z,84
2023-05-14T07:09:47.268Z,84
2023-05-14T07:10:17.953Z,84
2023-05-14T07:10:51.307Z,84
2023-05-14T07:11:22.018Z,83
2023-05-14T07:11:54.942Z,84
2023-05-14T07:12:25.909Z,83
2023-05-14T07:12:58.813Z,83
2023-05-14T07:13:29.953Z,83
2023-05-14T07:14:02.865Z,83
2023-05-14T07:14:33.905Z,83
2023-05-14T07:15:06.985Z,83
2023-05-14T07:15:37.861Z,83
2023-05-14T07:16:10.917Z,83
2023-05-14T07:16:41.759Z,83
2023-05-14T07:17:14.725Z,82
2023-05-14T07:17:45.912Z,82
2023-05-14T07:18:18.617Z,82
2023-05-14T07:18:49.707Z,82
2023-05-14T07:19:22.681Z,82
2023-05-14T07:19:53.839Z,82
2023-05-14T07:20:26.612Z,81
2023-05-14T07:20:57.569Z,82
2023-05-14T07:21:30.570Z,82
2023-05-14T07:22:01.695Z,82
2023-05-14T07:22:34.333Z,82
2023-05-14T07:23:05.718Z,82
2023-05-14T07:23:38.429Z,81
2023-05-14T07:24:09.329Z,81
2023-05-14T07:24:42.457Z,81
2023-05-14T07:25:13.469Z,81
2023-05-14T07:25:46.414Z,81
2023-05-14T07:26:17.328Z,81
2023-05-14T07:26:50.277Z,82
2023-05-14T07:27:21.419Z,81
2023-05-14T07:27:54.270Z,80
2023-05-14T07:28:25.217Z,80
2023-05-14T07:28:58.393Z,79
2023-05-14T07:29:29.348Z,80
2023-05-14T07:30:02.315Z,80
2023-05-14T07:30:33.171Z,79
2023-05-14T07:31:06.139Z,79
2023-05-14T07:31:37.306Z,79
2023-05-14T07:32:10.243Z,78
2023-05-14T07:32:41.462Z,77
2023-05-14T07:33:14.203Z,78
2023-05-14T07:33:45.044Z,78
2023-05-14T07:34:17.833Z,76
2023-05-14T07:34:49.158Z,77
2023-05-14T07:35:21.860Z,78
2023-05-14T07:35:52.924Z,78